sensor_id;sensor_type;location;lat;lon;timestamp;P1;durP1;ratioP1;P2;durP2;ratioP2
3379;SDS011;1703;51.964;7.642;2024-03-23T00:54:54;7.87;;;1.60;;
3379;SDS011;1703;51.964;7.642;2024-03-23T00:57:21;12.20;;;2.07;;
3379;SDS011;1703;51.964;7.642;2024-03-23T00:59:47;7.77;;;2.13;;
3379;SDS011;1703;51.964;7.642;2024-03-23T01:02:14;6.50;;;2.27;;
3379;SDS011;1703;51.964;7.642;2024-03-23T01:04:40;6.23;;;2.13;;
3379;SDS011;1703;51.964;7.642;2024-03-23T01:07:06;3.97;;;2.23;;
3379;SDS011;1703;51.964;7.642;2024-03-23T01:09:33;5.10;;;2.20;;
3379;SDS011;1703;51.964;7.642;2024-03-23T01:12:00;11.10;;;2.10;;
3379;SDS011;1703;51.964;7.642;2024-03-23T01:14:26;6.67;;;2.37;;
3379;SDS011;1703;51.964;7.642;2024-03-23T01:16:53;7.40;;;2.37;;
3379;SDS011;1703;51.964;7.642;2024-03-23T01:19:19;9.57;;;4.07;;
3379;SDS011;1703;51.964;7.642;2024-03-23T01:21:46;5.83;;;2.03;;
3379;SDS011;1703;51.964;7.642;2024-03-23T01:24:12;3.47;;;1.90;;
3379;SDS011;1703;51.964;7.642;2024-03-23T01:26:41;4.27;;;1.43;;
3379;SDS011;1703;51.964;7.642;2024-03-23T01:29:07;4.10;;;1.50;;
3379;SDS011;1703;51.964;7.642;2024-03-23T01:31:33;7.27;;;2.87;;
3379;SDS011;1703;51.964;7.642;2024-03-23T01:33:59;12.10;;;3.13;;
3379;SDS011;1703;51.964;7.642;2024-03-23T01:36:26;12.10;;;2.77;;
3379;SDS011;1703;51.964;7.642;2024-03-23T01:38:52;7.50;;;2.13;;
3379;SDS011;1703;51.964;7.642;2024-03-23T01:41:18;5.07;;;2.13;;
3379;SDS011;1703;51.964;7.642;2024-03-23T01:43:46;3.30;;;1.80;;
3379;SDS011;1703;51.964;7.642;2024-03-23T01:46:13;4.73;;;1.40;;
3379;SDS011;1703;51.964;7.642;2024-03-23T01:48:39;6.10;;;1.90;;
3379;SDS011;1703;51.964;7.642;2024-03-23T01:51:06;7.33;;;2.10;;
3379;SDS011;1703;51.964;7.642;2024-03-23T01:53:32;3.60;;;2.07;;
3379;SDS011;1703;51.964;7.642;2024-03-23T01:55:58;9.50;;;2.33;;
3379;SDS011;1703;51.964;7.642;2024-03-23T01:58:25;6.63;;;2.50;;
3379;SDS011;1703;51.964;7.642;2024-03-23T02:00:53;8.53;;;2.67;;
3379;SDS011;1703;51.964;7.642;2024-03-23T02:03:22;9.30;;;2.93;;
3379;SDS011;1703;51.964;7.642;2024-03-23T02:05:50;11.10;;;2.77;;
3379;SDS011;1703;51.964;7.642;2024-03-23T02:08:17;12.30;;;2.70;;
3379;SDS011;1703;51.964;7.642;2024-03-23T02:10:44;10.77;;;3.23;;
3379;SDS011;1703;51.964;7.642;2024-03-23T02:13:10;9.90;;;3.30;;
3379;SDS011;1703;51.964;7.642;2024-03-23T02:15:37;3.30;;;2.57;;
3379;SDS011;1703;51.964;7.642;2024-03-23T02:18:06;9.43;;;3.13;;
3379;SDS011;1703;51.964;7.642;2024-03-23T02:20:33;15.77;;;3.93;;
3379;SDS011;1703;51.964;7.642;2024-03-23T02:23:01;6.97;;;3.27;;
3379;SDS011;1703;51.964;7.642;2024-03-23T02:25:28;7.67;;;3.53;;
3379;SDS011;1703;51.964;7.642;2024-03-23T02:27:53;11.23;;;3.00;;
3379;SDS011;1703;51.964;7.642;2024-03-23T02:30:20;6.80;;;3.47;;
3379;SDS011;1703;51.964;7.642;2024-03-23T02:32:46;7.23;;;3.00;;
3379;SDS011;1703;51.964;7.642;2024-03-23T02:35:13;7.37;;;2.90;;
3379;SDS011;1703;51.964;7.642;2024-03-23T02:37:39;8.33;;;3.17;;
3379;SDS011;1703;51.964;7.642;2024-03-23T02:40:08;7.53;;;3.60;;
3379;SDS011;1703;51.964;7.642;2024-03-23T02:42:34;11.20;;;4.60;;
3379;SDS011;1703;51.964;7.642;2024-03-23T02:45:01;8.87;;;3.77;;
3379;SDS011;1703;51.964;7.642;2024-03-23T02:47:30;4.67;;;3.33;;
3379;SDS011;1703;51.964;7.642;2024-03-23T02:49:56;15.10;;;4.13;;
3379;SDS011;1703;51.964;7.642;2024-03-23T02:52:22;7.70;;;3.30;;
3379;SDS011;1703;51.964;7.642;2024-03-23T02:54:49;15.33;;;4.20;;
3379;SDS011;1703;51.964;7.642;2024-03-23T02:57:16;11.33;;;3.60;;
3379;SDS011;1703;51.964;7.642;2024-03-23T02:59:43;9.00;;;5.03;;
3379;SDS011;1703;51.964;7.642;2024-03-23T03:02:09;15.87;;;4.50;;
3379;SDS011;1703;51.964;7.642;2024-03-23T03:04:36;7.70;;;3.93;;
3379;SDS011;1703;51.964;7.642;2024-03-23T03:07:02;9.73;;;3.83;;
3379;SDS011;1703;51.964;7.642;2024-03-23T03:09:29;8.10;;;2.83;;
3379;SDS011;1703;51.964;7.642;2024-03-23T03:11:55;13.27;;;4.60;;
3379;SDS011;1703;51.964;7.642;2024-03-23T03:14:23;7.50;;;3.40;;
3379;SDS011;1703;51.964;7.642;2024-03-23T03:16:49;14.03;;;3.67;;
3379;SDS011;1703;51.964;7.642;2024-03-23T03:19:16;11.03;;;3.80;;
3379;SDS011;1703;51.964;7.642;2024-03-23T03:21:41;13.17;;;3.53;;
3379;SDS011;1703;51.964;7.642;2024-03-23T03:24:08;18.40;;;4.10;;
3379;SDS011;1703;51.964;7.642;2024-03-23T03:26:34;10.97;;;4.03;;
3379;SDS011;1703;51.964;7.642;2024-03-23T03:29:02;12.70;;;4.10;;
3379;SDS011;1703;51.964;7.642;2024-03-23T03:31:29;16.93;;;3.43;;
3379;SDS011;1703;51.964;7.642;2024-03-23T03:33:56;14.53;;;4.90;;
3379;SDS011;1703;51.964;7.642;2024-03-23T03:36:22;12.47;;;4.57;;
3379;SDS011;1703;51.964;7.642;2024-03-23T03:38:48;12.57;;;4.90;;
3379;SDS011;1703;51.964;7.642;2024-03-23T03:41:15;14.83;;;4.30;;
3379;SDS011;1703;51.964;7.642;2024-03-23T03:43:42;9.23;;;4.13;;
3379;SDS011;1703;51.964;7.642;2024-03-23T03:46:07;21.80;;;6.13;;
3379;SDS011;1703;51.964;7.642;2024-03-23T03:48:36;18.83;;;4.57;;
3379;SDS011;1703;51.964;7.642;2024-03-23T03:51:02;17.40;;;5.47;;
3379;SDS011;1703;51.964;7.642;2024-03-23T03:53:29;12.87;;;5.17;;
3379;SDS011;1703;51.964;7.642;2024-03-23T03:55:55;12.63;;;5.90;;
3379;SDS011;1703;51.964;7.642;2024-03-23T03:58:22;12.63;;;5.97;;
3379;SDS011;1703;51.964;7.642;2024-03-23T04:00:48;16.90;;;5.33;;
3379;SDS011;1703;51.964;7.642;2024-03-23T04:03:15;16.93;;;7.27;;
3379;SDS011;1703;51.964;7.642;2024-03-23T04:05:42;17.40;;;5.40;;
3379;SDS011;1703;51.964;7.642;2024-03-23T04:08:09;15.87;;;5.20;;
3379;SDS011;1703;51.964;7.642;2024-03-23T04:10:35;22.17;;;5.43;;
3379;SDS011;1703;51.964;7.642;2024-03-23T04:13:01;25.17;;;6.87;;
3379;SDS011;1703;51.964;7.642;2024-03-23T04:15:29;11.30;;;5.70;;
3379;SDS011;1703;51.964;7.642;2024-03-23T04:17:56;19.00;;;6.20;;
3379;SDS011;1703;51.964;7.642;2024-03-23T04:20:22;12.63;;;4.80;;
3379;SDS011;1703;51.964;7.642;2024-03-23T04:22:50;13.13;;;5.00;;
3379;SDS011;1703;51.964;7.642;2024-03-23T04:25:16;15.70;;;6.73;;
3379;SDS011;1703;51.964;7.642;2024-03-23T04:27:44;26.20;;;6.80;;
3379;SDS011;1703;51.964;7.642;2024-03-23T04:30:11;15.83;;;6.33;;
3379;SDS011;1703;51.964;7.642;2024-03-23T04:32:39;20.13;;;6.90;;
3379;SDS011;1703;51.964;7.642;2024-03-23T04:35:05;19.07;;;6.17;;
3379;SDS011;1703;51.964;7.642;2024-03-23T04:37:34;21.90;;;7.57;;
3379;SDS011;1703;51.964;7.642;2024-03-23T04:40:03;14.60;;;5.80;;
3379;SDS011;1703;51.964;7.642;2024-03-23T04:42:30;11.60;;;6.00;;
3379;SDS011;1703;51.964;7.642;2024-03-23T04:44:57;11.93;;;5.70;;
3379;SDS011;1703;51.964;7.642;2024-03-23T04:47:23;27.13;;;8.03;;
3379;SDS011;1703;51.964;7.642;2024-03-23T04:49:51;12.07;;;6.13;;
3379;SDS011;1703;51.964;7.642;2024-03-23T04:52:18;19.43;;;6.90;;
3379;SDS011;1703;51.964;7.642;2024-03-23T04:54:45;24.60;;;6.90;;
3379;SDS011;1703;51.964;7.642;2024-03-23T04:57:13;18.53;;;7.07;;
3379;SDS011;1703;51.964;7.642;2024-03-23T04:59:45;21.33;;;7.97;;
3379;SDS011;1703;51.964;7.642;2024-03-23T05:02:12;18.17;;;7.47;;
3379;SDS011;1703;51.964;7.642;2024-03-23T05:04:40;18.60;;;6.90;;
3379;SDS011;1703;51.964;7.642;2024-03-23T05:07:06;13.40;;;7.20;;
3379;SDS011;1703;51.964;7.642;2024-03-23T05:09:33;21.20;;;7.90;;
3379;SDS011;1703;51.964;7.642;2024-03-23T05:11:58;21.93;;;7.57;;
3379;SDS011;1703;51.964;7.642;2024-03-23T05:14:27;27.90;;;7.57;;
3379;SDS011;1703;51.964;7.642;2024-03-23T05:16:53;16.33;;;7.50;;
3379;SDS011;1703;51.964;7.642;2024-03-23T05:19:21;15.70;;;7.87;;
3379;SDS011;1703;51.964;7.642;2024-03-23T05:21:47;30.07;;;9.47;;
3379;SDS011;1703;51.964;7.642;2024-03-23T05:24:14;22.03;;;8.00;;
3379;SDS011;1703;51.964;7.642;2024-03-23T05:26:39;30.60;;;9.63;;
3379;SDS011;1703;51.964;7.642;2024-03-23T05:29:06;23.70;;;7.80;;
3379;SDS011;1703;51.964;7.642;2024-03-23T05:31:37;19.83;;;7.27;;
3379;SDS011;1703;51.964;7.642;2024-03-23T05:34:04;25.40;;;9.13;;
3379;SDS011;1703;51.964;7.642;2024-03-23T05:36:29;26.10;;;8.50;;
3379;SDS011;1703;51.964;7.642;2024-03-23T05:38:57;27.93;;;10.63;;
3379;SDS011;1703;51.964;7.642;2024-03-23T05:41:23;30.03;;;11.27;;
3379;SDS011;1703;51.964;7.642;2024-03-23T05:43:50;26.60;;;9.40;;
3379;SDS011;1703;51.964;7.642;2024-03-23T05:46:15;21.87;;;9.17;;
3379;SDS011;1703;51.964;7.642;2024-03-23T05:48:44;18.07;;;8.50;;
3379;SDS011;1703;51.964;7.642;2024-03-23T05:51:11;30.83;;;10.57;;
3379;SDS011;1703;51.964;7.642;2024-03-23T05:53:37;21.17;;;11.73;;
3379;SDS011;1703;51.964;7.642;2024-03-23T05:56:04;22.53;;;12.33;;
3379;SDS011;1703;51.964;7.642;2024-03-23T05:58:31;28.07;;;10.27;;
3379;SDS011;1703;51.964;7.642;2024-03-23T06:00:58;29.53;;;12.27;;
3379;SDS011;1703;51.964;7.642;2024-03-23T06:03:24;27.33;;;11.43;;
3379;SDS011;1703;51.964;7.642;2024-03-23T06:05:52;21.63;;;10.20;;
3379;SDS011;1703;51.964;7.642;2024-03-23T06:08:18;37.83;;;13.03;;
3379;SDS011;1703;51.964;7.642;2024-03-23T06:10:45;29.53;;;13.40;;
3379;SDS011;1703;51.964;7.642;2024-03-23T06:13:11;27.60;;;12.20;;
3379;SDS011;1703;51.964;7.642;2024-03-23T06:15:38;40.17;;;14.73;;
3379;SDS011;1703;51.964;7.642;2024-03-23T06:18:04;21.80;;;11.90;;
3379;SDS011;1703;51.964;7.642;2024-03-23T06:20:32;29.10;;;14.17;;
3379;SDS011;1703;51.964;7.642;2024-03-23T06:23:00;34.57;;;13.13;;
3379;SDS011;1703;51.964;7.642;2024-03-23T06:25:26;36.47;;;11.37;;
3379;SDS011;1703;51.964;7.642;2024-03-23T06:27:54;41.27;;;13.23;;
3379;SDS011;1703;51.964;7.642;2024-03-23T06:30:21;30.20;;;13.00;;
3379;SDS011;1703;51.964;7.642;2024-03-23T06:32:47;37.10;;;12.40;;
3379;SDS011;1703;51.964;7.642;2024-03-23T06:35:13;28.10;;;12.60;;
3379;SDS011;1703;51.964;7.642;2024-03-23T06:37:39;29.77;;;12.03;;
3379;SDS011;1703;51.964;7.642;2024-03-23T06:40:08;23.33;;;11.43;;
3379;SDS011;1703;51.964;7.642;2024-03-23T06:42:35;27.10;;;12.57;;
3379;SDS011;1703;51.964;7.642;2024-03-23T06:45:02;27.53;;;12.63;;
3379;SDS011;1703;51.964;7.642;2024-03-23T06:47:29;26.43;;;12.50;;
3379;SDS011;1703;51.964;7.642;2024-03-23T06:49:56;28.77;;;13.73;;
3379;SDS011;1703;51.964;7.642;2024-03-23T06:52:22;20.13;;;10.57;;
3379;SDS011;1703;51.964;7.642;2024-03-23T06:54:49;30.80;;;11.10;;
3379;SDS011;1703;51.964;7.642;2024-03-23T06:57:16;28.37;;;12.77;;
3379;SDS011;1703;51.964;7.642;2024-03-23T06:59:43;16.57;;;9.70;;
3379;SDS011;1703;51.964;7.642;2024-03-23T07:02:09;22.73;;;9.97;;
3379;SDS011;1703;51.964;7.642;2024-03-23T07:04:36;32.57;;;11.00;;
3379;SDS011;1703;51.964;7.642;2024-03-23T07:07:04;31.40;;;10.87;;
3379;SDS011;1703;51.964;7.642;2024-03-23T07:09:31;32.67;;;9.53;;
3379;SDS011;1703;51.964;7.642;2024-03-23T07:11:57;23.97;;;8.93;;
3379;SDS011;1703;51.964;7.642;2024-03-23T07:14:25;26.33;;;8.63;;
3379;SDS011;1703;51.964;7.642;2024-03-23T07:16:51;28.63;;;9.87;;
3379;SDS011;1703;51.964;7.642;2024-03-23T07:19:18;20.50;;;9.10;;
3379;SDS011;1703;51.964;7.642;2024-03-23T07:21:44;18.17;;;7.23;;
3379;SDS011;1703;51.964;7.642;2024-03-23T07:24:11;16.90;;;7.77;;
3379;SDS011;1703;51.964;7.642;2024-03-23T07:26:37;27.63;;;8.80;;
3379;SDS011;1703;51.964;7.642;2024-03-23T07:29:04;18.80;;;8.33;;
3379;SDS011;1703;51.964;7.642;2024-03-23T07:31:31;16.50;;;7.70;;
3379;SDS011;1703;51.964;7.642;2024-03-23T07:33:58;15.87;;;7.37;;
3379;SDS011;1703;51.964;7.642;2024-03-23T07:36:24;17.70;;;9.23;;
3379;SDS011;1703;51.964;7.642;2024-03-23T07:38:51;20.30;;;8.23;;
3379;SDS011;1703;51.964;7.642;2024-03-23T07:41:19;23.37;;;6.83;;
3379;SDS011;1703;51.964;7.642;2024-03-23T07:43:46;18.90;;;7.13;;
3379;SDS011;1703;51.964;7.642;2024-03-23T07:46:14;9.57;;;6.47;;
3379;SDS011;1703;51.964;7.642;2024-03-23T07:48:42;10.90;;;6.13;;
3379;SDS011;1703;51.964;7.642;2024-03-23T07:51:09;11.03;;;5.90;;
3379;SDS011;1703;51.964;7.642;2024-03-23T07:53:37;12.60;;;6.47;;
3379;SDS011;1703;51.964;7.642;2024-03-23T07:56:05;13.27;;;6.33;;
3379;SDS011;1703;51.964;7.642;2024-03-23T07:58:33;12.00;;;6.10;;
3379;SDS011;1703;51.964;7.642;2024-03-23T08:01:03;20.37;;;5.97;;
3379;SDS011;1703;51.964;7.642;2024-03-23T08:03:33;35.70;;;6.00;;
3379;SDS011;1703;51.964;7.642;2024-03-23T08:06:07;18.13;;;6.30;;
3379;SDS011;1703;51.964;7.642;2024-03-23T08:08:34;9.60;;;5.40;;
3379;SDS011;1703;51.964;7.642;2024-03-23T08:11:00;17.57;;;4.90;;
3379;SDS011;1703;51.964;7.642;2024-03-23T08:13:27;11.00;;;4.43;;
3379;SDS011;1703;51.964;7.642;2024-03-23T08:15:55;13.63;;;5.43;;
3379;SDS011;1703;51.964;7.642;2024-03-23T08:18:23;13.37;;;4.40;;
3379;SDS011;1703;51.964;7.642;2024-03-23T08:20:55;21.50;;;4.97;;
3379;SDS011;1703;51.964;7.642;2024-03-23T08:23:25;10.97;;;4.10;;
3379;SDS011;1703;51.964;7.642;2024-03-23T08:25:51;11.93;;;4.90;;
3379;SDS011;1703;51.964;7.642;2024-03-23T08:28:17;9.47;;;4.27;;
3379;SDS011;1703;51.964;7.642;2024-03-23T08:30:43;11.63;;;3.60;;
3379;SDS011;1703;51.964;7.642;2024-03-23T08:33:10;13.07;;;3.40;;
3379;SDS011;1703;51.964;7.642;2024-03-23T08:35:36;13.70;;;4.03;;
3379;SDS011;1703;51.964;7.642;2024-03-23T08:38:03;7.73;;;3.67;;
3379;SDS011;1703;51.964;7.642;2024-03-23T08:40:30;11.03;;;3.90;;
3379;SDS011;1703;51.964;7.642;2024-03-23T08:42:57;6.87;;;4.03;;
3379;SDS011;1703;51.964;7.642;2024-03-23T08:45:24;13.90;;;4.70;;
3379;SDS011;1703;51.964;7.642;2024-03-23T08:47:51;9.80;;;3.40;;
3379;SDS011;1703;51.964;7.642;2024-03-23T08:50:17;13.10;;;3.57;;
3379;SDS011;1703;51.964;7.642;2024-03-23T08:52:44;9.27;;;3.00;;
3379;SDS011;1703;51.964;7.642;2024-03-23T08:55:09;7.17;;;3.70;;
3379;SDS011;1703;51.964;7.642;2024-03-23T08:57:37;6.50;;;2.90;;
3379;SDS011;1703;51.964;7.642;2024-03-23T09:00:04;15.53;;;3.63;;
3379;SDS011;1703;51.964;7.642;2024-03-23T09:02:34;14.23;;;3.30;;
3379;SDS011;1703;51.964;7.642;2024-03-23T09:05:00;7.53;;;3.20;;
3379;SDS011;1703;51.964;7.642;2024-03-23T09:07:29;10.23;;;5.00;;
3379;SDS011;1703;51.964;7.642;2024-03-23T09:09:55;11.03;;;2.73;;
3379;SDS011;1703;51.964;7.642;2024-03-23T09:12:22;7.90;;;3.00;;
3379;SDS011;1703;51.964;7.642;2024-03-23T09:14:50;5.40;;;3.53;;
3379;SDS011;1703;51.964;7.642;2024-03-23T09:17:18;12.33;;;3.73;;
3379;SDS011;1703;51.964;7.642;2024-03-23T09:19:45;14.13;;;3.40;;
3379;SDS011;1703;51.964;7.642;2024-03-23T09:22:10;6.77;;;3.80;;
3379;SDS011;1703;51.964;7.642;2024-03-23T09:24:38;12.07;;;4.83;;
3379;SDS011;1703;51.964;7.642;2024-03-23T09:27:04;8.53;;;3.90;;
3379;SDS011;1703;51.964;7.642;2024-03-23T09:29:31;9.83;;;3.43;;
3379;SDS011;1703;51.964;7.642;2024-03-23T09:31:58;18.80;;;3.80;;
3379;SDS011;1703;51.964;7.642;2024-03-23T09:34:25;9.47;;;3.87;;
3379;SDS011;1703;51.964;7.642;2024-03-23T09:36:51;13.13;;;3.57;;
3379;SDS011;1703;51.964;7.642;2024-03-23T09:39:18;5.73;;;2.77;;
3379;SDS011;1703;51.964;7.642;2024-03-23T09:41:44;3.97;;;2.37;;
3379;SDS011;1703;51.964;7.642;2024-03-23T09:44:11;15.03;;;3.00;;
3379;SDS011;1703;51.964;7.642;2024-03-23T09:46:38;7.20;;;3.10;;
3379;SDS011;1703;51.964;7.642;2024-03-23T09:49:06;8.70;;;3.27;;
3379;SDS011;1703;51.964;7.642;2024-03-23T09:51:35;11.03;;;3.53;;
3379;SDS011;1703;51.964;7.642;2024-03-23T09:54:01;7.33;;;3.33;;
3379;SDS011;1703;51.964;7.642;2024-03-23T09:56:28;10.50;;;3.67;;
3379;SDS011;1703;51.964;7.642;2024-03-23T09:58:59;5.33;;;3.80;;
3379;SDS011;1703;51.964;7.642;2024-03-23T10:01:27;7.67;;;3.50;;
3379;SDS011;1703;51.964;7.642;2024-03-23T10:03:55;8.30;;;4.17;;
3379;SDS011;1703;51.964;7.642;2024-03-23T10:06:23;5.23;;;2.67;;
3379;SDS011;1703;51.964;7.642;2024-03-23T10:08:50;14.50;;;3.53;;
3379;SDS011;1703;51.964;7.642;2024-03-23T10:11:18;6.90;;;3.57;;
3379;SDS011;1703;51.964;7.642;2024-03-23T10:13:44;3.63;;;1.87;;
3379;SDS011;1703;51.964;7.642;2024-03-23T10:16:12;5.53;;;2.47;;
3379;SDS011;1703;51.964;7.642;2024-03-23T10:18:47;5.03;;;2.40;;
3379;SDS011;1703;51.964;7.642;2024-03-23T10:21:14;2.10;;;1.90;;
3379;SDS011;1703;51.964;7.642;2024-03-23T10:23:42;4.00;;;3.23;;
3379;SDS011;1703;51.964;7.642;2024-03-23T10:26:13;4.33;;;2.60;;
3379;SDS011;1703;51.964;7.642;2024-03-23T10:28:52;4.60;;;2.33;;
3379;SDS011;1703;51.964;7.642;2024-03-23T10:31:26;5.50;;;2.87;;
3379;SDS011;1703;51.964;7.642;2024-03-23T10:33:52;6.00;;;2.83;;
3379;SDS011;1703;51.964;7.642;2024-03-23T10:36:20;8.97;;;2.63;;
3379;SDS011;1703;51.964;7.642;2024-03-23T10:38:49;7.20;;;3.17;;
3379;SDS011;1703;51.964;7.642;2024-03-23T10:41:17;4.07;;;2.53;;
3379;SDS011;1703;51.964;7.642;2024-03-23T10:43:43;8.73;;;2.37;;
3379;SDS011;1703;51.964;7.642;2024-03-23T10:46:12;6.93;;;2.17;;
3379;SDS011;1703;51.964;7.642;2024-03-23T10:48:38;5.80;;;2.50;;
3379;SDS011;1703;51.964;7.642;2024-03-23T10:51:05;7.30;;;2.03;;
3379;SDS011;1703;51.964;7.642;2024-03-23T10:53:33;8.37;;;3.20;;
3379;SDS011;1703;51.964;7.642;2024-03-23T10:56:03;10.73;;;2.20;;
3379;SDS011;1703;51.964;7.642;2024-03-23T10:58:31;3.93;;;1.80;;
3379;SDS011;1703;51.964;7.642;2024-03-23T11:01:00;9.23;;;2.03;;
3379;SDS011;1703;51.964;7.642;2024-03-23T11:03:31;10.43;;;2.33;;
3379;SDS011;1703;51.964;7.642;2024-03-23T11:06:02;1.93;;;1.80;;
3379;SDS011;1703;51.964;7.642;2024-03-23T11:08:32;4.50;;;2.00;;
3379;SDS011;1703;51.964;7.642;2024-03-23T11:13:50;5.60;;;2.00;;
3379;SDS011;1703;51.964;7.642;2024-03-23T11:16:21;3.43;;;1.50;;
3379;SDS011;1703;51.964;7.642;2024-03-23T11:18:48;4.50;;;2.10;;
3379;SDS011;1703;51.964;7.642;2024-03-23T11:24:14;2.37;;;1.90;;
3379;SDS011;1703;51.964;7.642;2024-03-23T11:26:42;3.57;;;1.30;;
3379;SDS011;1703;51.964;7.642;2024-03-23T11:29:08;4.07;;;1.30;;
3379;SDS011;1703;51.964;7.642;2024-03-23T11:31:36;2.77;;;1.47;;
3379;SDS011;1703;51.964;7.642;2024-03-23T11:34:02;3.97;;;1.43;;
3379;SDS011;1703;51.964;7.642;2024-03-23T11:36:30;4.43;;;1.10;;
3379;SDS011;1703;51.964;7.642;2024-03-23T11:38:56;5.80;;;1.60;;
3379;SDS011;1703;51.964;7.642;2024-03-23T11:41:23;1.27;;;1.00;;
3379;SDS011;1703;51.964;7.642;2024-03-23T11:43:50;5.00;;;1.70;;
3379;SDS011;1703;51.964;7.642;2024-03-23T11:46:22;4.67;;;1.70;;
3379;SDS011;1703;51.964;7.642;2024-03-23T11:48:49;1.90;;;1.23;;
3379;SDS011;1703;51.964;7.642;2024-03-23T11:51:16;7.87;;;1.80;;
3379;SDS011;1703;51.964;7.642;2024-03-23T11:53:42;5.53;;;2.00;;
3379;SDS011;1703;51.964;7.642;2024-03-23T11:56:09;12.53;;;2.27;;
3379;SDS011;1703;51.964;7.642;2024-03-23T11:58:35;5.83;;;2.57;;
3379;SDS011;1703;51.964;7.642;2024-03-23T12:01:03;3.43;;;2.00;;
3379;SDS011;1703;51.964;7.642;2024-03-23T12:03:30;4.83;;;2.20;;
3379;SDS011;1703;51.964;7.642;2024-03-23T12:05:59;10.40;;;2.57;;
3379;SDS011;1703;51.964;7.642;2024-03-23T12:08:29;3.70;;;1.93;;
3379;SDS011;1703;51.964;7.642;2024-03-23T12:11:04;5.20;;;1.70;;
3379;SDS011;1703;51.964;7.642;2024-03-23T12:13:31;8.67;;;2.73;;
3379;SDS011;1703;51.964;7.642;2024-03-23T12:16:10;6.83;;;2.13;;
3379;SDS011;1703;51.964;7.642;2024-03-23T12:18:37;7.27;;;2.60;;
3379;SDS011;1703;51.964;7.642;2024-03-23T12:21:04;6.97;;;2.20;;
3379;SDS011;1703;51.964;7.642;2024-03-23T12:23:30;2.80;;;1.70;;
3379;SDS011;1703;51.964;7.642;2024-03-23T12:25:57;8.27;;;2.37;;
3379;SDS011;1703;51.964;7.642;2024-03-23T12:28:24;2.60;;;1.57;;
3379;SDS011;1703;51.964;7.642;2024-03-23T12:30:50;5.00;;;2.20;;
3379;SDS011;1703;51.964;7.642;2024-03-23T12:33:19;13.63;;;2.00;;
3379;SDS011;1703;51.964;7.642;2024-03-23T12:35:48;5.47;;;1.83;;
3379;SDS011;1703;51.964;7.642;2024-03-23T12:38:17;2.80;;;1.70;;
3379;SDS011;1703;51.964;7.642;2024-03-23T12:40:45;4.93;;;1.60;;
3379;SDS011;1703;51.964;7.642;2024-03-23T12:43:13;2.50;;;1.10;;
3379;SDS011;1703;51.964;7.642;2024-03-23T12:45:39;1.33;;;0.80;;
3379;SDS011;1703;51.964;7.642;2024-03-23T12:48:06;5.33;;;1.47;;
3379;SDS011;1703;51.964;7.642;2024-03-23T12:50:34;2.30;;;1.10;;
3379;SDS011;1703;51.964;7.642;2024-03-23T12:53:01;2.90;;;1.50;;
3379;SDS011;1703;51.964;7.642;2024-03-23T12:55:27;2.43;;;1.50;;
3379;SDS011;1703;51.964;7.642;2024-03-23T12:57:53;8.10;;;2.00;;
3379;SDS011;1703;51.964;7.642;2024-03-23T13:00:19;3.80;;;1.70;;
3379;SDS011;1703;51.964;7.642;2024-03-23T13:02:46;5.63;;;2.23;;
3379;SDS011;1703;51.964;7.642;2024-03-23T13:05:12;8.33;;;1.57;;
3379;SDS011;1703;51.964;7.642;2024-03-23T13:07:40;4.37;;;2.00;;
3379;SDS011;1703;51.964;7.642;2024-03-23T13:10:06;10.23;;;2.33;;
3379;SDS011;1703;51.964;7.642;2024-03-23T13:12:33;7.80;;;1.97;;
3379;SDS011;1703;51.964;7.642;2024-03-23T13:14:59;5.03;;;2.03;;
3379;SDS011;1703;51.964;7.642;2024-03-23T13:17:26;4.90;;;1.90;;
3379;SDS011;1703;51.964;7.642;2024-03-23T13:19:52;7.23;;;2.43;;
3379;SDS011;1703;51.964;7.642;2024-03-23T13:22:19;7.60;;;1.87;;
3379;SDS011;1703;51.964;7.642;2024-03-23T13:24:47;7.50;;;2.37;;
3379;SDS011;1703;51.964;7.642;2024-03-23T13:27:14;4.30;;;2.30;;
3379;SDS011;1703;51.964;7.642;2024-03-23T13:29:39;3.43;;;2.27;;
3379;SDS011;1703;51.964;7.642;2024-03-23T13:32:06;1.93;;;1.73;;
3379;SDS011;1703;51.964;7.642;2024-03-23T13:34:33;2.97;;;1.70;;
3379;SDS011;1703;51.964;7.642;2024-03-23T13:37:00;6.00;;;1.67;;
3379;SDS011;1703;51.964;7.642;2024-03-23T13:39:26;5.70;;;1.47;;
3379;SDS011;1703;51.964;7.642;2024-03-23T13:41:55;1.63;;;1.53;;
3379;SDS011;1703;51.964;7.642;2024-03-23T13:44:21;2.30;;;1.13;;
3379;SDS011;1703;51.964;7.642;2024-03-23T13:46:48;1.53;;;1.00;;
3379;SDS011;1703;51.964;7.642;2024-03-23T13:49:19;2.80;;;1.10;;
3379;SDS011;1703;51.964;7.642;2024-03-23T13:51:51;1.50;;;1.00;;
3379;SDS011;1703;51.964;7.642;2024-03-23T13:54:18;6.60;;;1.00;;
3379;SDS011;1703;51.964;7.642;2024-03-23T13:56:44;2.23;;;0.80;;
3379;SDS011;1703;51.964;7.642;2024-03-23T13:59:12;2.33;;;1.57;;
3379;SDS011;1703;51.964;7.642;2024-03-23T14:01:39;2.20;;;1.13;;
3379;SDS011;1703;51.964;7.642;2024-03-23T14:04:05;1.37;;;1.27;;
3379;SDS011;1703;51.964;7.642;2024-03-23T14:06:32;4.00;;;1.50;;
3379;SDS011;1703;51.964;7.642;2024-03-23T14:08:58;10.07;;;3.30;;
3379;SDS011;1703;51.964;7.642;2024-03-23T14:11:25;5.47;;;2.57;;
3379;SDS011;1703;51.964;7.642;2024-03-23T14:13:51;5.70;;;2.00;;
3379;SDS011;1703;51.964;7.642;2024-03-23T14:16:20;7.53;;;1.53;;
3379;SDS011;1703;51.964;7.642;2024-03-23T14:18:46;7.70;;;2.03;;
3379;SDS011;1703;51.964;7.642;2024-03-23T14:21:13;3.47;;;1.80;;
3379;SDS011;1703;51.964;7.642;2024-03-23T14:23:39;13.50;;;1.90;;
3379;SDS011;1703;51.964;7.642;2024-03-23T14:26:06;2.80;;;1.40;;
3379;SDS011;1703;51.964;7.642;2024-03-23T14:28:33;5.03;;;1.80;;
3379;SDS011;1703;51.964;7.642;2024-03-23T14:31:00;2.75;;;1.10;;
3379;SDS011;1703;51.964;7.642;2024-03-23T14:33:27;5.03;;;1.50;;
3379;SDS011;1703;51.964;7.642;2024-03-23T14:35:54;2.87;;;1.43;;
3379;SDS011;1703;51.964;7.642;2024-03-23T14:38:20;2.33;;;1.40;;
3379;SDS011;1703;51.964;7.642;2024-03-23T14:40:48;3.67;;;1.63;;
3379;SDS011;1703;51.964;7.642;2024-03-23T14:43:14;1.97;;;1.30;;
3379;SDS011;1703;51.964;7.642;2024-03-23T14:45:49;6.17;;;1.13;;
3379;SDS011;1703;51.964;7.642;2024-03-23T14:48:36;3.73;;;1.47;;
3379;SDS011;1703;51.964;7.642;2024-03-23T14:51:03;5.57;;;1.40;;
3379;SDS011;1703;51.964;7.642;2024-03-23T14:53:30;3.13;;;1.37;;
3379;SDS011;1703;51.964;7.642;2024-03-23T14:55:57;5.63;;;2.07;;
3379;SDS011;1703;51.964;7.642;2024-03-23T14:58:25;7.30;;;1.80;;
3379;SDS011;1703;51.964;7.642;2024-03-23T15:00:52;4.30;;;1.97;;
3379;SDS011;1703;51.964;7.642;2024-03-23T15:03:18;4.40;;;1.40;;
3379;SDS011;1703;51.964;7.642;2024-03-23T15:05:53;2.17;;;1.00;;
3379;SDS011;1703;51.964;7.642;2024-03-23T15:08:19;2.40;;;1.20;;
3379;SDS011;1703;51.964;7.642;2024-03-23T15:10:46;12.70;;;2.10;;
3379;SDS011;1703;51.964;7.642;2024-03-23T15:13:12;3.30;;;2.57;;
3379;SDS011;1703;51.964;7.642;2024-03-23T15:15:39;2.83;;;1.30;;
3379;SDS011;1703;51.964;7.642;2024-03-23T15:18:06;5.70;;;1.57;;
3379;SDS011;1703;51.964;7.642;2024-03-23T15:20:33;3.50;;;1.17;;
3379;SDS011;1703;51.964;7.642;2024-03-23T15:23:02;9.60;;;2.97;;
3379;SDS011;1703;51.964;7.642;2024-03-23T15:25:29;8.70;;;1.40;;
3379;SDS011;1703;51.964;7.642;2024-03-23T15:27:56;14.77;;;1.73;;
3379;SDS011;1703;51.964;7.642;2024-03-23T15:30:23;1.67;;;1.37;;
3379;SDS011;1703;51.964;7.642;2024-03-23T15:32:48;2.50;;;1.00;;
3379;SDS011;1703;51.964;7.642;2024-03-23T15:35:15;2.57;;;1.30;;
3379;SDS011;1703;51.964;7.642;2024-03-23T15:37:41;4.47;;;1.37;;
3379;SDS011;1703;51.964;7.642;2024-03-23T15:40:10;6.17;;;1.03;;
3379;SDS011;1703;51.964;7.642;2024-03-23T15:42:38;12.93;;;2.17;;
3379;SDS011;1703;51.964;7.642;2024-03-23T15:45:06;4.53;;;1.57;;
3379;SDS011;1703;51.964;7.642;2024-03-23T15:47:32;3.70;;;1.37;;
3379;SDS011;1703;51.964;7.642;2024-03-23T15:49:59;6.87;;;2.30;;
3379;SDS011;1703;51.964;7.642;2024-03-23T15:52:25;4.53;;;1.60;;
3379;SDS011;1703;51.964;7.642;2024-03-23T15:54:52;15.93;;;2.33;;
3379;SDS011;1703;51.964;7.642;2024-03-23T15:57:19;4.77;;;1.70;;
3379;SDS011;1703;51.964;7.642;2024-03-23T15:59:48;8.10;;;1.40;;
3379;SDS011;1703;51.964;7.642;2024-03-23T16:02:13;9.20;;;1.90;;
3379;SDS011;1703;51.964;7.642;2024-03-23T16:04:41;3.63;;;1.70;;
3379;SDS011;1703;51.964;7.642;2024-03-23T16:07:07;3.27;;;1.40;;